createdAt,value
2019-04-26T00:03:09.353Z,6.83
2019-04-26T00:13:03.460Z,4.80
2019-04-26T00:17:59.588Z,5.00
2019-04-26T00:22:54.423Z,3.87
2019-04-26T00:27:48.597Z,4.93
2019-04-26T00:37:37.259Z,4.33
2019-04-26T00:42:32.526Z,4.83
2019-04-26T00:47:28.098Z,4.37
2019-04-26T00:52:23.699Z,4.40
2019-04-26T00:57:20.213Z,4.43
2019-04-26T01:02:19.344Z,4.20
2019-04-26T01:07:15.690Z,4.60
2019-04-26T01:12:09.975Z,4.77
2019-04-26T01:17:06.135Z,4.53
2019-04-26T01:22:03.706Z,4.90
2019-04-26T01:27:01.698Z,4.93
2019-04-26T01:32:05.387Z,4.37
2019-04-26T01:37:05.697Z,4.33
2019-04-26T01:42:02.577Z,5.07
2019-04-26T01:46:57.476Z,5.77
2019-04-26T01:51:57.611Z,4.80
2019-04-26T01:56:54.663Z,5.20
2019-04-26T02:02:07.589Z,5.53
2019-04-26T02:07:02.688Z,5.67
2019-04-26T02:11:57.524Z,5.67
2019-04-26T02:16:52.142Z,4.70
2019-04-26T02:21:48.561Z,5.27
2019-04-26T02:26:46.301Z,5.70
2019-04-26T02:31:43.069Z,6.10
2019-04-26T02:36:56.096Z,6.27
2019-04-26T02:41:37.205Z,5.93
2019-04-26T02:46:55.133Z,5.93
2019-04-26T02:51:52.349Z,5.57
2019-04-26T02:56:49.303Z,6.10
2019-04-26T03:01:43.918Z,5.40
2019-04-26T03:06:42.676Z,6.27
2019-04-26T03:11:45.854Z,5.30
2019-04-26T03:16:59.502Z,6.27
2019-04-26T03:22:13.135Z,6.10
2019-04-26T03:27:22.795Z,6.20
2019-04-26T03:37:45.191Z,4.83
2019-04-26T03:43:04.908Z,6.33
2019-04-26T03:48:21.344Z,6.10
2019-04-26T03:58:25.579Z,7.87
2019-04-26T04:03:47.572Z,8.47
2019-04-26T04:08:56.455Z,5.80
2019-04-26T04:18:55.821Z,5.77
2019-04-26T04:23:52.990Z,5.40
2019-04-26T04:29:03.761Z,5.67
2019-04-26T04:34:07.391Z,4.60
2019-04-26T04:39:13.108Z,6.00
2019-04-26T04:44:29.886Z,6.13
2019-04-26T04:49:52.705Z,4.60
2019-04-26T04:55:06.416Z,6.77
2019-04-26T04:59:54.967Z,5.93
2019-04-26T05:05:05.959Z,6.47
2019-04-26T05:10:06.191Z,4.83
2019-04-26T05:15:05.856Z,4.43
2019-04-26T05:20:06.199Z,4.47
2019-04-26T05:25:23.751Z,4.00
2019-04-26T05:30:40.435Z,4.20
2019-04-26T05:36:00.325Z,6.07
2019-04-26T05:41:10.109Z,4.23
2019-04-26T05:46:32.140Z,4.70
2019-04-26T05:51:27.877Z,4.93
2019-04-26T05:56:32.784Z,4.10
2019-04-26T06:01:54.749Z,4.50
2019-04-26T06:07:05.652Z,3.70
2019-04-26T06:12:07.161Z,3.83
2019-04-26T06:17:22.213Z,3.10
2019-04-26T06:22:25.424Z,3.80
2019-04-26T06:27:27.366Z,4.03
2019-04-26T06:32:24.730Z,3.55
2019-04-26T06:37:32.789Z,3.62
2019-04-26T06:42:56.273Z,4.15
2019-04-26T06:48:04.605Z,4.05
2019-04-26T06:53:24.799Z,4.28
2019-04-26T06:58:45.735Z,3.72
2019-04-26T07:04:00.724Z,4.50
2019-04-26T07:09:02.179Z,3.70
2019-04-26T07:19:15.475Z,3.60
2019-04-26T07:24:33.025Z,3.42
2019-04-26T07:29:30.200Z,4.17
2019-04-26T07:40:13.270Z,2.47
2019-04-26T07:45:12.388Z,2.83
2019-04-26T07:50:22.454Z,2.22
2019-04-26T07:55:38.530Z,2.80
2019-04-26T08:00:44.980Z,2.95
2019-04-26T08:05:55.543Z,2.40
2019-04-26T08:11:10.820Z,2.62
2019-04-26T08:16:23.872Z,2.30
2019-04-26T08:21:36.993Z,2.10
2019-04-26T08:26:34.473Z,2.55
2019-04-26T08:31:31.847Z,1.70
2019-04-26T08:36:30.540Z,1.75
2019-04-26T08:41:26.916Z,2.25
2019-04-26T08:46:43.205Z,2.00
2019-04-26T08:51:39.427Z,1.72
2019-04-26T08:56:42.558Z,1.80
2019-04-26T09:01:37.792Z,1.50
2019-04-26T09:06:39.259Z,1.30
2019-04-26T09:11:35.450Z,1.42
2019-04-26T09:16:30.784Z,1.70
2019-04-26T09:21:38.839Z,2.42
2019-04-26T09:26:35.591Z,1.55
2019-04-26T09:31:43.437Z,1.20
2019-04-26T09:36:37.711Z,1.72
2019-04-26T09:41:32.946Z,1.87
2019-04-26T09:46:28.974Z,1.70
2019-04-26T09:51:25.526Z,1.55
2019-04-26T09:56:21.307Z,1.65
2019-04-26T10:01:19.633Z,1.65
2019-04-26T10:06:14.731Z,1.72
2019-04-26T10:16:17.148Z,1.57
2019-04-26T10:21:11.730Z,2.10
2019-04-26T10:26:08.091Z,2.52
2019-04-26T10:31:02.393Z,1.90
2019-04-26T10:35:57.881Z,1.55
2019-04-26T10:40:52.432Z,1.75
2019-04-26T10:45:53.626Z,1.72
2019-04-26T10:50:43.238Z,2.00
2019-04-26T10:55:39.402Z,1.70
2019-04-26T11:00:48.467Z,1.55
2019-04-26T11:05:42.175Z,1.45
2019-04-26T11:10:48.056Z,1.60
2019-04-26T11:15:34.119Z,1.35
2019-04-26T11:20:30.542Z,1.50
2019-04-26T11:25:28.124Z,2.53
2019-04-26T11:30:21.878Z,1.50
2019-04-26T11:35:16.101Z,1.80
2019-04-26T11:40:14.552Z,2.20
2019-04-26T11:45:10.796Z,1.77
2019-04-26T11:50:12.462Z,1.73
2019-04-26T11:55:06.621Z,1.70
2019-04-26T12:00:01.463Z,5.53
2019-04-26T12:05:05.555Z,1.40
2019-04-26T12:10:09.869Z,1.87
2019-04-26T12:15:03.864Z,1.53
2019-04-26T12:19:59.210Z,2.07
2019-04-26T12:24:54.317Z,4.00
2019-04-26T12:29:49.767Z,1.70
2019-04-26T12:34:45.841Z,1.87
2019-04-26T12:39:40.268Z,1.83
2019-04-26T12:44:48.935Z,2.57
2019-04-26T12:49:43.403Z,2.93
2019-04-26T12:54:38.954Z,2.13
2019-04-26T12:59:44.105Z,2.10
2019-04-26T13:04:36.279Z,1.97
2019-04-26T13:09:28.083Z,1.50
2019-04-26T13:14:24.150Z,2.33
2019-04-26T13:19:19.849Z,2.73
2019-04-26T13:24:15.802Z,2.40
2019-04-26T13:29:10.115Z,1.90
2019-04-26T13:34:07.717Z,2.97
2019-04-26T13:39:01.915Z,2.20
2019-04-26T13:43:57.174Z,2.30
2019-04-26T13:48:56.336Z,2.40
2019-04-26T13:53:51.064Z,3.70
2019-04-26T13:58:45.349Z,1.90
2019-04-26T14:03:40.053Z,2.50
2019-04-26T14:08:34.269Z,4.30
2019-04-26T14:13:29.497Z,2.30
2019-04-26T14:18:23.788Z,1.97
2019-04-26T14:23:39.174Z,1.90
2019-04-26T14:28:36.342Z,2.00
2019-04-26T14:33:31.038Z,1.60
2019-04-26T14:38:28.031Z,1.80
2019-04-26T14:43:23.522Z,1.90
2019-04-26T14:48:22.215Z,1.60
2019-04-26T14:53:13.953Z,1.60
2019-04-26T14:58:08.777Z,2.13
2019-04-26T15:03:17.405Z,2.13
2019-04-26T15:08:13.323Z,2.00
2019-04-26T15:13:15.322Z,2.00
2019-04-26T15:18:07.700Z,2.03
2019-04-26T15:23:04.543Z,1.50
2019-04-26T15:27:58.971Z,2.00
2019-04-26T15:32:53.807Z,1.77
2019-04-26T15:37:49.113Z,1.53
2019-04-26T15:47:58.481Z,1.97
2019-04-26T15:52:52.787Z,2.50
2019-04-26T15:57:48.513Z,1.87
2019-04-26T16:02:42.790Z,2.37
2019-04-26T16:07:37.895Z,2.17
2019-04-26T16:12:32.181Z,2.37
2019-04-26T16:17:27.165Z,2.57
2019-04-26T16:22:22.028Z,2.60
2019-04-26T16:27:18.767Z,2.37
2019-04-26T16:32:30.223Z,1.90
2019-04-26T16:37:24.624Z,2.37
2019-04-26T16:42:19.132Z,2.73
2019-04-26T16:47:13.530Z,2.60
2019-04-26T16:52:08.646Z,3.40
2019-04-26T17:00:33.602Z,4.20
2019-04-26T17:02:02.731Z,3.20
2019-04-26T17:07:01.721Z,4.70
2019-04-26T17:11:54.109Z,5.20
2019-04-26T17:16:48.550Z,6.87
2019-04-26T17:21:45.812Z,6.00
2019-04-26T17:26:42.804Z,6.93
2019-04-26T17:31:38.516Z,7.37
2019-04-26T17:36:34.506Z,8.93
2019-04-26T17:41:31.044Z,7.93
2019-04-26T17:46:26.937Z,8.67
2019-04-26T17:51:23.389Z,10.03
2019-04-26T17:56:18.335Z,20.43
2019-04-26T18:01:33.312Z,11.60
2019-04-26T18:06:14.122Z,11.47
2019-04-26T18:11:06.550Z,12.17
2019-04-26T18:16:03.634Z,12.50
2019-04-26T18:21:20.623Z,15.47
2019-04-26T18:26:17.389Z,16.70
2019-04-26T18:36:06.494Z,17.73
2019-04-26T18:41:01.548Z,18.73
2019-04-26T18:45:58.807Z,31.80
2019-04-26T18:50:55.357Z,16.60
2019-04-26T18:55:53.523Z,19.53
2019-04-26T19:00:49.105Z,16.20
2019-04-26T19:05:44.934Z,16.03
2019-04-26T19:10:39.366Z,16.07
2019-04-26T19:15:53.180Z,37.93
2019-04-26T19:21:05.778Z,15.47
2019-04-26T19:26:01.652Z,19.63
2019-04-26T19:30:56.133Z,13.50
2019-04-26T19:35:50.315Z,13.47
2019-04-26T19:40:47.754Z,14.47
2019-04-26T19:46:01.449Z,14.03
2019-04-26T19:50:58.746Z,19.00
2019-04-26T19:56:11.753Z,15.97
2019-04-26T20:01:06.470Z,12.93
2019-04-26T20:06:01.022Z,11.57
2019-04-26T20:10:55.478Z,9.03
2019-04-26T20:15:51.437Z,9.33
2019-04-26T20:20:45.707Z,8.57
2019-04-26T20:25:39.806Z,8.80
2019-04-26T20:30:35.740Z,8.23
2019-04-26T20:35:31.943Z,8.13
2019-04-26T20:40:26.242Z,6.30
2019-04-26T20:45:21.738Z,6.20
2019-04-26T20:50:15.950Z,11.43
2019-04-26T20:55:11.694Z,6.20
2019-04-26T21:00:08.217Z,6.23
2019-04-26T21:05:06.263Z,7.60
2019-04-26T21:09:58.232Z,7.83
2019-04-26T21:14:53.548Z,7.60
2019-04-26T21:19:50.021Z,15.13
2019-04-26T21:24:50.704Z,10.07
2019-04-26T21:30:00.672Z,7.93
2019-04-26T21:34:56.974Z,13.50
2019-04-26T21:40:09.698Z,6.30
2019-04-26T21:45:05.850Z,6.00
2019-04-26T21:50:00.780Z,6.43
2019-04-26T21:55:43.381Z,5.13
2019-04-26T22:00:50.495Z,5.73
2019-04-26T22:05:49.807Z,6.27
2019-04-26T22:10:43.659Z,4.90
2019-04-26T22:15:42.100Z,5.50
2019-04-26T22:20:38.248Z,8.47
2019-04-26T22:25:34.382Z,5.80
2019-04-26T22:30:29.724Z,7.80
2019-04-26T22:35:25.146Z,9.77
2019-04-26T22:40:19.847Z,7.17
2019-04-26T22:45:19.674Z,8.70
2019-04-26T22:50:20.678Z,6.60
2019-04-26T22:55:10.466Z,7.87
2019-04-26T23:00:05.977Z,9.47
2019-04-26T23:09:55.371Z,10.63
2019-04-26T23:15:05.866Z,4.93
2019-04-26T23:20:07.833Z,5.57
2019-04-26T23:25:03.526Z,5.63
2019-04-26T23:29:58.518Z,5.17
2019-04-26T23:34:53.538Z,4.90
2019-04-26T23:39:49.448Z,4.97
2019-04-26T23:44:44.127Z,4.00
2019-04-26T23:54:35.887Z,4.17
2019-04-26T23:59:29.082Z,4.77
